createdAt,value
2023-11-10T00:00:12.334Z,12.97
2023-11-10T00:02:45.230Z,20.15
2023-11-10T00:05:13.840Z,9.85
2023-11-10T00:07:41.826Z,10.20
2023-11-10T00:10:10.371Z,11.60
2023-11-10T00:12:38.350Z,10.73
2023-11-10T00:15:09.844Z,11.55
2023-11-10T00:17:37.730Z,9.38
2023-11-10T00:20:08.945Z,15.80
2023-11-10T00:22:36.626Z,14.40
2023-11-10T00:25:04.424Z,12.07
2023-11-10T00:27:33.590Z,8.40
2023-11-10T00:30:01.360Z,11.45
2023-11-10T00:32:29.051Z,13.10
2023-11-10T00:34:57.731Z,11.52
2023-11-10T00:37:26.710Z,11.67
2023-11-10T00:39:59.088Z,13.13
2023-11-10T00:42:26.882Z,13.10
2023-11-10T00:44:54.533Z,19.15
2023-11-10T00:47:22.923Z,12.05
2023-11-10T00:49:50.600Z,15.20
2023-11-10T00:52:19.609Z,14.85
2023-11-10T00:54:49.011Z,16.65
2023-11-10T00:57:16.854Z,11.10
2023-11-10T00:59:44.592Z,12.27
2023-11-10T01:02:21.060Z,13.43
2023-11-10T01:04:52.697Z,14.90
2023-11-10T01:07:22.776Z,11.38
2023-11-10T01:09:51.823Z,12.38
2023-11-10T01:12:21.990Z,12.52
2023-11-10T01:14:50.723Z,12.77
2023-11-10T01:17:18.406Z,12.82
2023-11-10T01:19:46.064Z,13.68
2023-11-10T01:22:13.735Z,21.73
2023-11-10T01:24:41.851Z,12.07
2023-11-10T01:27:10.890Z,14.77
2023-11-10T01:29:39.298Z,20.90
2023-11-10T01:32:06.210Z,14.00
2023-11-10T01:34:33.968Z,12.88
2023-11-10T01:37:01.772Z,13.52
2023-11-10T01:39:29.471Z,15.03
2023-11-10T01:41:57.956Z,13.13
2023-11-10T01:44:27.880Z,20.42
2023-11-10T01:46:55.646Z,11.48
2023-11-10T01:49:24.075Z,16.50
2023-11-10T01:51:51.674Z,14.80
2023-11-10T01:54:21.908Z,9.48
2023-11-10T01:56:50.147Z,16.42
2023-11-10T02:19:42.213Z,9.65
2023-11-10T02:22:10.302Z,11.10
2023-11-10T02:24:39.512Z,11.93
2023-11-10T02:27:08.500Z,12.05
2023-11-10T02:29:40.505Z,15.93
2023-11-10T02:32:08.853Z,11.93
2023-11-10T02:34:36.504Z,15.67
2023-11-10T02:37:04.406Z,14.20
2023-11-10T02:39:32.232Z,12.40
2023-11-10T02:41:59.869Z,14.77
2023-11-10T02:44:29.519Z,9.45
2023-11-10T02:46:57.077Z,8.87
2023-11-10T02:49:24.866Z,12.43
2023-11-10T02:51:52.472Z,12.60
2023-11-10T02:54:20.081Z,11.57
2023-11-10T02:56:47.725Z,10.10
2023-11-10T02:59:15.432Z,15.60
2023-11-10T03:01:45.841Z,8.82
2023-11-10T03:04:13.834Z,8.15
2023-11-10T03:06:41.492Z,9.80
2023-11-10T03:09:09.928Z,12.50
2023-11-10T03:11:38.072Z,10.97
2023-11-10T03:14:06.164Z,9.05
2023-11-10T03:16:33.793Z,11.95
2023-11-10T03:19:04.447Z,11.43
2023-11-10T03:21:32.147Z,8.75
2023-11-10T03:23:59.757Z,4.43
2023-11-10T03:26:27.449Z,9.02
2023-11-10T03:28:55.455Z,6.45
2023-11-10T03:31:23.073Z,6.32
2023-11-10T03:33:50.858Z,4.38
2023-11-10T03:36:19.879Z,7.63
2023-11-10T03:38:47.462Z,6.07
2023-11-10T03:41:15.226Z,7.55
2023-11-10T03:43:43.051Z,5.97
2023-11-10T03:46:12.476Z,5.47
2023-11-10T03:48:41.549Z,6.73
2023-11-10T03:51:11.287Z,4.55
2023-11-10T03:53:41.756Z,5.93
2023-11-10T03:56:09.571Z,6.85
2023-11-10T03:58:37.403Z,3.42
2023-11-10T04:01:12.123Z,6.03
2023-11-10T04:03:44.911Z,3.58
2023-11-10T04:06:13.502Z,4.78
2023-11-10T04:08:42.613Z,2.45
2023-11-10T04:11:10.904Z,4.00
2023-11-10T04:13:39.029Z,3.20
2023-11-10T04:16:07.704Z,4.20
2023-11-10T04:18:38.054Z,6.50
2023-11-10T04:21:06.477Z,5.57
2023-11-10T04:23:34.958Z,5.40
2023-11-10T04:26:06.557Z,3.47
2023-11-10T04:28:36.073Z,4.85
2023-11-10T04:31:04.119Z,3.22
2023-11-10T04:33:32.343Z,4.20
2023-11-10T04:36:00.454Z,4.07
2023-11-10T04:38:28.102Z,4.13
2023-11-10T04:40:57.569Z,3.03
2023-11-10T04:43:26.481Z,2.83
2023-11-10T04:45:54.239Z,2.13
2023-11-10T04:48:22.313Z,2.95
2023-11-10T04:50:49.995Z,6.03
2023-11-10T04:53:17.571Z,3.95
2023-11-10T04:55:46.479Z,4.40
2023-11-10T04:58:15.722Z,7.40
2023-11-10T05:00:45.170Z,8.27
2023-11-10T05:03:13.540Z,3.37
2023-11-10T05:05:41.101Z,6.50
2023-11-10T05:08:08.707Z,6.18
2023-11-10T05:10:38.729Z,6.38
2023-11-10T05:13:06.443Z,5.88
2023-11-10T05:15:34.941Z,5.60
2023-11-10T05:18:05.934Z,6.80
2023-11-10T05:20:33.709Z,8.40
2023-11-10T05:23:01.372Z,5.32
2023-11-10T05:28:20.279Z,7.23
2023-11-10T05:30:49.020Z,7.22
2023-11-10T05:33:17.982Z,6.28
2023-11-10T05:35:46.301Z,11.48
2023-11-10T05:38:15.042Z,5.95
2023-11-10T05:40:43.022Z,5.53
2023-11-10T05:43:10.961Z,6.95
2023-11-10T05:45:39.312Z,6.03
2023-11-10T05:48:07.049Z,6.60
2023-11-10T05:50:36.167Z,5.70
2023-11-10T05:53:03.775Z,4.93
2023-11-10T05:55:33.784Z,4.45
2023-11-10T05:58:05.794Z,5.72
2023-11-10T06:00:34.021Z,10.45
2023-11-10T06:03:02.755Z,5.70
2023-11-10T06:05:32.511Z,7.47
2023-11-10T06:08:01.801Z,7.95
2023-11-10T06:10:30.012Z,6.13
2023-11-10T06:13:01.807Z,10.82
2023-11-10T06:15:29.495Z,9.35
2023-11-10T06:17:57.147Z,5.93
2023-11-10T06:20:25.247Z,7.15
2023-11-10T06:22:53.398Z,3.50
2023-11-10T06:25:22.507Z,9.68
2023-11-10T06:27:50.227Z,6.28
2023-11-10T06:30:18.085Z,6.87
2023-11-10T06:32:50.773Z,6.97
2023-11-10T06:35:18.530Z,7.57
2023-11-10T06:37:46.066Z,6.82
2023-11-10T06:40:13.981Z,11.45
2023-11-10T06:42:43.055Z,7.37
2023-11-10T06:45:11.784Z,6.85
2023-11-10T06:47:39.749Z,7.32
2023-11-10T06:50:08.491Z,7.18
2023-11-10T06:52:36.042Z,13.35
2023-11-10T06:55:03.756Z,7.43
2023-11-10T06:57:31.553Z,8.10
2023-11-10T07:00:00.532Z,7.75
2023-11-10T07:02:28.208Z,9.13
2023-11-10T07:07:41.717Z,12.30
2023-11-10T07:10:10.446Z,12.02
2023-11-10T07:12:39.073Z,7.88
2023-11-10T07:15:10.757Z,8.48
2023-11-10T07:17:38.565Z,16.38
2023-11-10T07:20:07.060Z,9.63
2023-11-10T07:22:35.105Z,9.85
2023-11-10T07:27:50.067Z,9.05
2023-11-10T07:30:20.302Z,7.93
2023-11-10T07:32:47.939Z,13.13
2023-11-10T07:38:02.160Z,11.65
2023-11-10T07:40:30.719Z,12.05
2023-11-10T07:42:58.335Z,13.20
2023-11-10T07:45:30.847Z,14.57
2023-11-10T07:47:58.634Z,7.53
2023-11-10T07:50:26.274Z,10.23
2023-11-10T07:52:53.911Z,12.13
2023-11-10T07:55:21.608Z,9.60
2023-11-10T07:57:49.380Z,17.50
2023-11-10T08:00:20.591Z,7.63
2023-11-10T08:02:53.560Z,6.60
2023-11-10T08:05:23.701Z,9.40
2023-11-10T08:07:54.467Z,5.68
2023-11-10T08:10:22.284Z,10.07
2023-11-10T08:12:51.028Z,11.52
2023-11-10T08:15:19.152Z,16.42
2023-11-10T08:17:46.890Z,6.93
2023-11-10T08:20:17.472Z,13.52
2023-11-10T08:22:45.114Z,9.20
2023-11-10T08:25:13.240Z,13.82
2023-11-10T08:27:41.401Z,12.32
2023-11-10T08:30:10.341Z,13.32
2023-11-10T08:32:38.327Z,13.02
2023-11-10T08:35:06.450Z,7.47
2023-11-10T08:37:35.701Z,11.70
2023-11-10T08:40:07.246Z,8.55
2023-11-10T08:42:35.231Z,10.95
2023-11-10T08:45:02.774Z,7.07
2023-11-10T08:47:30.468Z,7.03
2023-11-10T08:49:58.201Z,8.10
2023-11-10T08:52:26.004Z,11.80
2023-11-10T08:57:42.486Z,9.88
2023-11-10T09:00:12.485Z,7.00
2023-11-10T09:02:40.767Z,10.38
2023-11-10T09:05:08.817Z,9.35
2023-11-10T09:07:37.268Z,6.75
2023-11-10T09:10:07.037Z,6.47
2023-11-10T09:12:34.760Z,4.57
2023-11-10T09:15:02.409Z,4.80
2023-11-10T09:17:33.124Z,2.63
2023-11-10T09:20:03.336Z,8.35
2023-11-10T09:22:32.703Z,4.22
2023-11-10T09:25:00.318Z,4.30
2023-11-10T09:27:29.638Z,8.18
2023-11-10T09:30:00.500Z,2.63
2023-11-10T09:32:28.103Z,7.47
2023-11-10T09:34:57.264Z,3.20
2023-11-10T09:37:24.963Z,4.43
2023-11-10T09:39:52.603Z,3.45
2023-11-10T09:42:26.588Z,2.72
2023-11-10T09:44:58.067Z,5.15
2023-11-10T09:47:26.746Z,4.28
2023-11-10T09:49:54.602Z,5.17
2023-11-10T09:52:23.229Z,4.18
2023-11-10T09:54:53.055Z,6.53
2023-11-10T09:57:23.453Z,6.10
2023-11-10T09:59:53.443Z,5.53
2023-11-10T10:02:27.488Z,7.40
2023-11-10T10:04:55.650Z,6.32
2023-11-10T10:07:23.234Z,4.20
2023-11-10T10:09:51.406Z,5.88
2023-11-10T10:12:19.983Z,4.18
2023-11-10T10:14:54.619Z,5.03
2023-11-10T10:17:31.868Z,2.80
2023-11-10T10:20:07.018Z,3.35
2023-11-10T10:22:34.809Z,4.18
2023-11-10T10:25:02.542Z,5.25
2023-11-10T10:27:30.543Z,2.53
2023-11-10T10:30:00.396Z,5.85
2023-11-10T10:32:28.630Z,2.38
2023-11-10T10:34:57.011Z,4.65
2023-11-10T10:37:26.230Z,4.00
2023-11-10T10:39:53.815Z,10.73
2023-11-10T10:42:23.421Z,4.53
2023-11-10T10:44:51.314Z,4.53
2023-11-10T10:47:19.768Z,3.42
2023-11-10T10:49:48.539Z,4.07
2023-11-10T10:52:19.014Z,6.27
2023-11-10T10:54:48.644Z,4.78
2023-11-10T10:57:16.848Z,6.13
2023-11-10T10:59:45.864Z,7.25
2023-11-10T11:02:14.384Z,5.13
2023-11-10T11:04:49.127Z,10.07
2023-11-10T11:07:23.311Z,5.07
2023-11-10T11:10:02.237Z,7.97
2023-11-10T11:12:45.444Z,5.82
2023-11-10T11:15:17.254Z,4.75
2023-11-10T11:18:09.526Z,5.37
2023-11-10T11:20:37.865Z,6.35
2023-11-10T11:23:08.142Z,4.47
2023-11-10T11:25:39.014Z,5.63
2023-11-10T11:28:06.805Z,5.70
2023-11-10T11:30:36.711Z,7.60
2023-11-10T11:33:11.419Z,4.55
2023-11-10T11:35:47.867Z,4.65
2023-11-10T11:38:26.303Z,5.90
2023-11-10T11:40:57.952Z,6.72
2023-11-10T11:43:26.320Z,7.20
2023-11-10T11:45:56.208Z,5.30
2023-11-10T11:48:24.154Z,10.40
2023-11-10T11:50:53.424Z,5.70
2023-11-10T11:53:21.834Z,8.52
2023-11-10T11:55:51.065Z,6.33
2023-11-10T11:58:20.418Z,6.88
2023-11-10T12:00:48.934Z,7.35
2023-11-10T12:03:16.702Z,8.82
2023-11-10T12:05:45.290Z,7.53
2023-11-10T12:08:14.174Z,8.13
2023-11-10T12:10:41.930Z,5.80
2023-11-10T12:13:14.449Z,5.95
2023-11-10T12:15:45.174Z,6.10
2023-11-10T12:18:13.811Z,11.18
2023-11-10T12:20:41.587Z,12.50
2023-11-10T12:25:55.209Z,12.57
2023-11-10T12:28:22.975Z,9.18
2023-11-10T12:30:52.186Z,10.57
2023-11-10T12:33:20.108Z,8.87
2023-11-10T12:35:47.780Z,10.55
2023-11-10T12:38:15.358Z,10.10
2023-11-10T12:40:43.306Z,10.65
2023-11-10T12:43:11.169Z,9.07
2023-11-10T12:45:40.208Z,8.20
2023-11-10T12:48:16.396Z,7.93
2023-11-10T12:50:45.747Z,8.68
2023-11-10T12:53:13.335Z,7.80
2023-11-10T12:55:41.247Z,5.75
2023-11-10T12:58:10.320Z,10.87
2023-11-10T13:00:39.412Z,7.75
2023-11-10T13:03:07.618Z,6.25
2023-11-10T13:05:38.896Z,7.88
2023-11-10T13:08:06.651Z,6.90
2023-11-10T13:10:35.323Z,5.20
2023-11-10T13:13:03.382Z,8.20
2023-11-10T13:15:31.349Z,5.63
2023-11-10T13:17:59.662Z,5.50
2023-11-10T13:20:35.656Z,5.63
2023-11-10T13:23:05.642Z,4.73
2023-11-10T13:25:33.267Z,4.85
2023-11-10T13:28:01.025Z,7.00
2023-11-10T13:30:31.443Z,6.05
2023-11-10T13:32:59.271Z,6.57
2023-11-10T13:35:27.202Z,5.30
2023-11-10T13:37:54.867Z,6.25
2023-11-10T13:40:23.896Z,4.75
2023-11-10T13:42:53.261Z,5.32
2023-11-10T13:45:22.164Z,6.43
2023-11-10T13:47:49.784Z,5.30
2023-11-10T13:50:17.587Z,5.25
2023-11-10T13:52:45.561Z,6.72
2023-11-10T13:55:13.648Z,4.95
2023-11-10T13:57:43.453Z,6.43
2023-11-10T14:00:30.036Z,3.63
2023-11-10T14:02:58.119Z,5.13
2023-11-10T14:05:26.465Z,6.63
2023-11-10T14:07:54.411Z,7.15
2023-11-10T14:10:22.331Z,4.90
2023-11-10T14:12:51.342Z,4.40
2023-11-10T14:15:19.540Z,5.32
2023-11-10T14:17:48.590Z,4.15
2023-11-10T14:20:16.266Z,5.13
2023-11-10T14:22:45.055Z,5.43
2023-11-10T14:25:13.413Z,4.50
2023-11-10T14:27:41.293Z,6.55
2023-11-10T14:30:11.238Z,6.60
2023-11-10T14:32:40.243Z,6.80
2023-11-10T14:35:11.538Z,6.18
2023-11-10T14:37:40.418Z,5.67
2023-11-10T14:40:17.921Z,4.60
2023-11-10T14:42:48.234Z,5.68
2023-11-10T14:45:22.809Z,6.15
2023-11-10T14:47:52.894Z,7.85
2023-11-10T14:50:36.156Z,7.47
2023-11-10T14:53:08.900Z,7.00
2023-11-10T14:55:36.757Z,6.22
2023-11-10T14:58:05.175Z,4.95
2023-11-10T15:00:36.360Z,7.63
2023-11-10T15:03:05.382Z,5.17
2023-11-10T15:05:35.862Z,5.88
2023-11-10T15:08:05.676Z,5.57
2023-11-10T15:10:38.995Z,6.68
2023-11-10T15:13:10.585Z,5.80
2023-11-10T15:15:45.072Z,5.53
2023-11-10T15:18:15.433Z,7.88
2023-11-10T15:20:44.601Z,6.35
2023-11-10T15:23:12.703Z,6.93
2023-11-10T15:25:40.914Z,9.73
2023-11-10T15:28:08.977Z,7.83
2023-11-10T15:30:37.335Z,5.38
2023-11-10T15:33:09.558Z,6.18
2023-11-10T15:35:41.136Z,6.03
2023-11-10T15:38:10.332Z,7.70
2023-11-10T15:40:39.127Z,5.23
2023-11-10T15:43:07.107Z,7.38
2023-11-10T15:45:35.082Z,7.28
2023-11-10T15:48:02.945Z,8.18
2023-11-10T15:50:32.043Z,7.22
2023-11-10T15:52:59.862Z,11.43
2023-11-10T15:55:27.535Z,7.63
2023-11-10T15:57:55.652Z,7.53
2023-11-10T16:00:23.988Z,7.35
2023-11-10T16:02:53.411Z,5.75
2023-11-10T16:05:21.705Z,5.63
2023-11-10T16:07:51.239Z,6.35
2023-11-10T16:10:20.913Z,5.57
2023-11-10T16:12:49.359Z,8.63
2023-11-10T16:18:02.979Z,5.80
2023-11-10T16:20:31.206Z,5.90
2023-11-10T16:23:00.220Z,6.43
2023-11-10T16:25:28.212Z,5.55
2023-11-10T16:27:56.195Z,8.18
2023-11-10T16:30:25.903Z,7.83
2023-11-10T16:32:58.517Z,6.43
2023-11-10T16:35:28.689Z,6.32
2023-11-10T16:37:56.620Z,6.57
2023-11-10T16:40:25.589Z,9.07
2023-11-10T16:42:53.247Z,8.17
2023-11-10T16:45:21.047Z,7.80
2023-11-10T16:47:49.334Z,7.82
2023-11-10T16:50:17.131Z,10.35
2023-11-10T16:52:46.752Z,8.82
2023-11-10T16:55:14.597Z,7.33
2023-11-10T16:57:43.578Z,8.93
2023-11-10T17:00:15.070Z,10.77
2023-11-10T17:02:45.809Z,12.45
2023-11-10T17:05:16.712Z,11.75
2023-11-10T17:07:44.349Z,9.33
2023-11-10T17:10:12.238Z,9.70
2023-11-10T17:12:41.422Z,8.63
2023-11-10T17:15:12.149Z,7.40
2023-11-10T17:17:42.895Z,8.73
2023-11-10T17:20:12.035Z,6.57
2023-11-10T17:22:40.075Z,7.90
2023-11-10T17:25:08.802Z,7.35
2023-11-10T17:27:36.569Z,7.68
2023-11-10T17:30:04.474Z,8.25
2023-11-10T17:32:33.666Z,6.20
2023-11-10T17:35:01.476Z,9.27
2023-11-10T17:37:29.048Z,8.98
2023-11-10T17:39:56.673Z,8.70
2023-11-10T17:42:26.313Z,7.20
2023-11-10T17:44:55.213Z,6.00
2023-11-10T17:47:24.094Z,10.07
2023-11-10T17:49:53.089Z,6.35
2023-11-10T17:52:20.674Z,8.45
2023-11-10T17:54:48.971Z,6.40
2023-11-10T17:57:16.598Z,6.53
2023-11-10T17:59:46.584Z,6.63
2023-11-10T18:02:14.402Z,8.50
2023-11-10T18:04:51.905Z,7.55
2023-11-10T18:07:24.958Z,7.47
2023-11-10T18:09:53.389Z,8.23
2023-11-10T18:12:21.006Z,6.55
2023-11-10T18:14:48.776Z,6.78
2023-11-10T18:17:16.591Z,9.27
2023-11-10T18:19:45.569Z,7.90
2023-11-10T18:22:13.439Z,6.60
2023-11-10T18:24:42.609Z,6.30
2023-11-10T18:27:10.830Z,6.57
2023-11-10T18:29:38.911Z,5.20
2023-11-10T18:32:06.867Z,6.38
2023-11-10T18:34:34.430Z,7.60
2023-11-10T18:37:02.235Z,7.07
2023-11-10T18:39:30.963Z,4.70
2023-11-10T18:42:00.132Z,5.93
2023-11-10T18:44:27.927Z,5.68
2023-11-10T18:46:55.627Z,10.33
2023-11-10T18:49:23.177Z,7.05
2023-11-10T18:51:50.793Z,5.57
2023-11-10T18:54:18.481Z,5.43
2023-11-10T18:56:47.804Z,6.82
2023-11-10T18:59:16.776Z,4.80
2023-11-10T19:01:45.988Z,6.18
2023-11-10T19:04:14.471Z,4.70
2023-11-10T19:06:42.205Z,7.38
2023-11-10T19:09:10.282Z,5.32
2023-11-10T19:11:38.709Z,4.60
2023-11-10T19:14:06.558Z,4.18
2023-11-10T19:16:36.347Z,7.43
2023-11-10T19:19:04.239Z,3.72
2023-11-10T19:21:32.228Z,5.00
2023-11-10T19:24:02.777Z,5.33
2023-11-10T19:26:30.308Z,6.45
2023-11-10T19:28:58.000Z,5.68
2023-11-10T19:34:12.156Z,4.05
2023-11-10T19:36:40.352Z,4.07
2023-11-10T19:39:08.517Z,3.75
2023-11-10T19:41:37.560Z,4.22
2023-11-10T19:44:05.315Z,6.45
2023-11-10T19:46:35.362Z,5.70
2023-11-10T19:49:03.101Z,4.53
2023-11-10T19:56:33.462Z,5.63
2023-11-10T20:01:31.737Z,5.60
2023-11-10T20:03:59.629Z,5.55
2023-11-10T20:06:29.160Z,5.60
2023-11-10T20:08:58.188Z,4.72
2023-11-10T20:11:26.000Z,6.55
2023-11-10T20:13:53.613Z,4.73
2023-11-10T20:16:23.228Z,7.68
2023-11-10T20:18:51.144Z,6.88
2023-11-10T20:21:18.981Z,8.55
2023-11-10T20:23:47.696Z,4.88
2023-11-10T20:26:16.878Z,6.20
2023-11-10T20:28:44.403Z,6.80
2023-11-10T20:31:12.388Z,7.85
2023-11-10T20:33:40.858Z,8.93
2023-11-10T20:36:09.513Z,8.38
2023-11-10T20:38:37.669Z,10.20
2023-11-10T20:41:08.660Z,6.40
2023-11-10T20:43:39.193Z,6.18
2023-11-10T20:46:08.126Z,6.20
2023-11-10T20:48:35.749Z,8.43
2023-11-10T20:51:04.825Z,7.70
2023-11-10T20:53:35.727Z,6.93
2023-11-10T20:56:03.297Z,8.15
2023-11-10T20:58:30.844Z,7.35
2023-11-10T21:00:59.992Z,6.43
2023-11-10T21:03:27.885Z,7.43
2023-11-10T21:05:55.507Z,9.93
2023-11-10T21:08:23.206Z,7.15
2023-11-10T21:10:51.085Z,17.02
2023-11-10T21:13:19.340Z,14.52
2023-11-10T21:18:35.061Z,7.95
2023-11-10T21:21:02.872Z,8.25
2023-11-10T21:23:30.405Z,11.50
2023-11-10T21:25:58.346Z,9.50
2023-11-10T21:28:26.567Z,8.40
2023-11-10T21:30:54.182Z,9.02
2023-11-10T21:33:25.704Z,7.40
2023-11-10T21:35:55.099Z,10.48
2023-11-10T21:38:25.378Z,8.50
2023-11-10T21:40:53.221Z,10.00
2023-11-10T21:43:20.947Z,8.20
2023-11-10T21:45:48.820Z,8.20
2023-11-10T21:48:16.744Z,9.82
2023-11-10T21:50:45.108Z,7.88
2023-11-10T21:53:14.191Z,5.63
2023-11-10T21:55:43.428Z,9.25
2023-11-10T21:58:13.700Z,6.07
2023-11-10T22:00:41.609Z,6.47
2023-11-10T22:03:09.511Z,8.57
2023-11-10T22:05:37.215Z,6.07
2023-11-10T22:08:06.562Z,7.15
2023-11-10T22:10:35.596Z,13.30
2023-11-10T22:13:03.839Z,12.13
2023-11-10T22:15:31.475Z,14.88
2023-11-10T22:17:59.307Z,14.73
2023-11-10T22:20:27.388Z,16.30
2023-11-10T22:22:55.026Z,9.35
2023-11-10T22:25:22.638Z,11.00
2023-11-10T22:30:38.130Z,9.43
2023-11-10T22:33:06.217Z,8.38
2023-11-10T22:35:34.660Z,7.78
2023-11-10T22:38:02.598Z,8.45
2023-11-10T22:40:30.338Z,11.30
2023-11-10T22:42:59.395Z,9.13
2023-11-10T22:45:27.038Z,11.85
2023-11-10T22:47:54.676Z,9.13
2023-11-10T22:50:22.246Z,10.25
2023-11-10T22:52:50.189Z,7.55
2023-11-10T22:55:18.262Z,10.77
2023-11-10T22:57:46.545Z,7.88
2023-11-10T23:00:28.134Z,10.70
2023-11-10T23:02:56.782Z,10.45
2023-11-10T23:05:24.633Z,9.07
2023-11-10T23:07:52.455Z,11.73
2023-11-10T23:10:20.820Z,10.40
2023-11-10T23:12:49.286Z,10.82
2023-11-10T23:15:18.953Z,9.68
2023-11-10T23:17:46.739Z,11.30
2023-11-10T23:20:26.143Z,11.87
2023-11-10T23:22:58.662Z,12.68
2023-11-10T23:25:26.354Z,10.63
2023-11-10T23:27:53.983Z,10.80
2023-11-10T23:30:23.313Z,13.23
2023-11-10T23:32:52.431Z,8.83
2023-11-10T23:35:20.286Z,11.93
2023-11-10T23:37:49.380Z,14.70
2023-11-10T23:40:17.105Z,10.05
2023-11-10T23:42:44.761Z,10.50
2023-11-10T23:45:13.856Z,11.97
2023-11-10T23:47:43.259Z,10.73
2023-11-10T23:50:11.332Z,10.07
2023-11-10T23:52:40.290Z,9.15
2023-11-10T23:55:08.174Z,11.57
2023-11-10T23:57:36.190Z,12.17
